Terminal Aerodrome Forecast
Issued by NWS

Current Version | Previous Version | Text Only | Print | Product List | Glossary On
Versions: 1 2 3 4 5 6 7 8 9 10 11 12 13 14
671
FTUS46 KSTO 202321
TAFRDD
TAF
KRDD 202321Z 2100/2124 17008KT 6SM HZ SKC
     FM210500 VRB04KT 6SM HZ SKC
     FM212200 18008KT P6SM SKC=

USA.gov is the U.S. government's official web portal to all federal, state and local government web resources and services.